Tiempo atmosférico en la estación meteorológica de Silleda, Pontevedra (422 m.)



Fecha
DESCASC
Temp. máxima en grados centígrados (hora)
DESCASC
Temp. mínima en grados centígrados (hora)
DESCASC
Temp. media en grados centígrados
DESCASC
Racha de viento máxima en m/sg (hora)
DESCASC
Velocidad máxima media en intervalos de 10 minutos(hora)
DESCASC
Precipitaciones diarias en mm
DESCASC
Precipitaciones de 00:00 a 06:00 en mm
DESCASC
Precipitaciones de 06:00 a 12:00 en mm
DESCASC
Precipitaciones de 12:00 a 18:00 en mm
DESCASC
Precipitaciones de 18:00 a 24:00 en mm
DESCASC
30-12-2019 -- (--) -- (--) -- -- (--) -- (--) -- 0 0 -- 0
31-12-2019 10.3 (17:10) 2.9 (00:00) 6.6 5.83 (18:50) 3.89 (19:30) 0 0 0 0 0
11-01-2020 13.3 (14:10) 3 (00:00) 8.2 6.39 (01:40) 4.17 (05:30) 0 0 0 0 0
08-01-2020 15.3 (14:00) 6.5 (00:00) 10.9 5.83 (00:10) 4.17 (00:10) 0 0 0 0 0
07-01-2020 13.7 (13:40) 2.6 (00:00) 8.1 5.28 (07:40) 3.89 (07:40) 0 0 0 0 0
06-01-2020 12.2 (15:20) 1.3 (00:00) 6.7 5.83 (23:00) 3.61 (08:00) 0 0 0 0 0
05-01-2020 11.9 (12:10) 2.8 (00:00) 7.3 7.78 (00:30) 5 (00:30) 0 0 0 0 0
04-01-2020 10.8 (15:30) 4 (00:00) 7.4 7.5 (23:00) 3.89 (16:10) 0 0 0 0 0
02-01-2020 11 (12:10) 2.8 (00:00) 6.9 9.72 (13:10) 4.44 (15:30) 0 0 0 0 0
01-01-2020 14.3 (12:10) -2.5 (-00:0) 5.9 4.72 (01:50) 2.78 (08:10) 0 0 0 0 0
29-12-2019 24.1 (16:10) 9.9 (00:00) 17 9.17 (03:00) 6.39 (03:00) 0 0 0 0 0
28-12-2019 21 (15:20) 7.5 (00:00) 14.3 8.61 (11:10) 5.56 (23:59) 0 0 0 0 0
27-12-2019 16.9 (16:00) 3.5 (00:00) 10.2 9.44 (07:10) 5.83 (07:00) 0 0 0 0 0
26-12-2019 13.7 (16:10) 4 (00:00) 8.8 7.22 (21:10) 4.17 (21:10) 0 0 0 0 0
12-01-2020 13.1 (14:40) 1.8 (04:20) 7.5 5.83 (10:00) 3.89 (04:50) 0 0 0 0 0
13-01-2020 12 (14:10) 6.7 (00:00) 9.3 14.17 (19:10) 6.39 (18:50) 0 0 0 0 0
10-01-2020 11.9 (16:20) 2.9 (00:00) 7.4 4.72 (14:20) 2.78 (23:59) 0.4 0 0.4 0 0
14-01-2020 13.7 (15:20) 8.9 (00:00) 11.3 16.39 (23:20) 8.33 (14:40) 0.4 0.2 0 0 0.2
03-01-2020 14 (16:30) 4.9 (00:00) 9.5 6.11 (06:00) 3.89 (06:00) 0.8 0 0.8 0 0
24-12-2019 16.3 (15:00) 12 (00:00) 14.1 10.83 (23:50) 6.67 (23:50) 0.8 0.6 0.2 0 0
25-12-2019 16.2 (15:40) 10.1 (00:00) 13.2 11.67 (00:10) 6.67 (00:10) 1.4 0 0 0 1.4
23-12-2019 13.3 (20:40) 7.4 (00:00) 10.4 10.28 (13:00) 4.17 (10:10) 1.4 0 0 0.8 0.6
09-01-2020 13.9 (11:40) 5.7 (00:00) 9.8 15 (14:20) 6.11 (13:40) 1.6 0.2 0 1.4 0
17-01-2020 11.5 (11:50) 5 (00:00) 8.3 8.89 (06:40) 3.61 (21:10) 3.2 3 0.2 0 0
22-12-2019 12.4 (12:20) 7.4 (22:30) 9.9 20.83 (09:20) 9.44 (09:20) 12 7.4 3.8 0.8 0
15-01-2020 14.1 (15:50) 7.3 (00:00) 10.7 18.89 (01:50) 7.78 (02:10) 22.2 17.2 5 0 0
20-12-2019 9.9 (15:10) 5.2 (00:00) 7.5 14.17 (15:30) 5.83 (10:40) 24.8 5.2 6.4 12.4 0.8
21-12-2019 13.7 (08:20) 8.3 (01:00) 11 23.33 (17:30) 9.44 (17:30) 29 1.4 13.6 6.8 7.2
16-01-2020 13.5 (11:40) 6.3 (00:00) 9.9 18.89 (09:50) 8.89 (11:50) 38.4 4.4 2.8 30.4 0.8
19-12-2019 12.6 (00:40) 6.4 (08:00) 9.5 16.11 (11:50) 8.33 (07:10) 50.6 14.6 11.4 8.8 15.8

Gráficas

Temp. máximas Temp. mínimas Temp. medias Precipitaciones Rachas de viento máximas Velocidades máximas media en intervalos de 10 minutos

Datos horarios

Fecha y hora oficial Temperatura (ºC) Velocidad del viento (km/h) Dirección del viento Racha (km/h) Dirección de racha Precipitación (mm) Presión (hPa) Tendencia (hPa) Humedad (%)
2020-01-17 23:00:00 7.5 11 Sudeste 19 Sudeste 0 -- -- 79
2020-01-17 22:00:00 7.6 9 Sudeste 21 Sudeste 0 -- -- 79
2020-01-17 21:00:00 7.5 10 Sudeste 22 Sudeste 0 -- -- 81
2020-01-17 20:00:00 7.2 7 Sudeste 13 Sudeste 0 -- -- 80
2020-01-17 19:00:00 7.5 7 Sur 12 Sudeste 0 -- -- 74
2020-01-17 18:00:00 7.7 0 Calma 4 Sudoeste 0 -- -- 81
2020-01-17 17:00:00 9 0 Calma 4 Oeste 0 -- -- 76
2020-01-17 16:00:00 9 2 Oeste 18 Sudoeste 0 -- -- 73
2020-01-17 15:00:00 9.2 5 Sudoeste 13 Sur 0 -- -- 74
2020-01-17 14:00:00 9.2 6 Oeste 16 Oeste 0 -- -- 74
2020-01-17 13:00:00 8.8 6 Oeste 19 Oeste 0 -- -- 74
2020-01-17 12:00:00 10.6 9 Sudoeste 18 Sudoeste 0 -- -- 70
2020-01-17 11:00:00 10.5 4 Sur 8 Sudoeste 0 -- -- 72
2020-01-17 10:00:00 7.1 2 Sudoeste 9 Oeste 0 -- -- 88
2020-01-17 09:00:00 5.3 2 Sudoeste 9 Sudoeste 0 -- -- 95
2020-01-17 08:00:00 5 0 Calma 20 Noroeste 0 -- -- 96
2020-01-17 07:00:00 5.6 9 Noroeste 32 Noroeste 0.2 -- -- 94
2020-01-17 06:00:00 6 5 Oeste 21 Noroeste 0.2 -- -- 95
2020-01-17 05:00:00 6.3 5 Oeste 25 Oeste 0 -- -- 94
2020-01-17 04:00:00 6.5 9 Noroeste 22 Oeste 0 -- -- 95
2020-01-17 03:00:00 6.6 8 Noroeste 26 Oeste 1.4 -- -- 96
2020-01-17 02:00:00 6.9 7 Oeste 24 Sudoeste 1.4 -- -- 95
2020-01-17 01:00:00 7.5 6 Oeste 25 Oeste 0 -- -- 88
2020-01-17 00:00:00 8.4 8 Oeste 25 Sudoeste 0 -- -- 90
2020-01-16 23:00:00 8.7 8 Oeste 23 Oeste 0 -- -- 91
2020-01-16 22:00:00 8.5 9 Oeste 29 Oeste 0 -- -- 92
2020-01-16 21:00:00 7.8 5 Oeste 18 Oeste 0 -- -- 95
2020-01-16 20:00:00 7.8 8 Sudoeste 24 Sudoeste 0 -- -- 95
2020-01-16 19:00:00 8.2 8 Sudoeste 21 Sur 0.8 -- -- 95
2020-01-16 18:00:00 7.8 10 Sudoeste 34 Oeste 9.4 -- -- 98
2020-01-16 17:00:00 6.7 17 Oeste 56 Sudeste 9.2 -- -- 94
2020-01-16 16:00:00 10.7 27 Sur 45 Sur 3 -- -- 85
2020-01-16 15:00:00 11.5 26 Sur 51 Sur 2.8 -- -- 87
2020-01-16 14:00:00 11.5 23 Sur 58 Sur 4 -- -- 90
2020-01-16 13:00:00 11.9 26 Sudoeste 57 Sudoeste 2 -- -- 88
2020-01-16 12:00:00 12.8 29 Sur 66 Sur 0.2 -- -- 82
2020-01-16 11:00:00 13.1 27 Sudoeste 59 Sur 0 -- -- 80
2020-01-16 10:00:00 13.1 26 Sudoeste 68 Sur 0 -- -- 81
2020-01-16 09:00:00 12.5 25 Sur 55 Sudoeste 1 -- -- 84
2020-01-16 08:00:00 11.9 23 Sur 48 Sudoeste 1.6 -- -- 89
2020-01-16 07:00:00 12.9 28 Sudoeste 62 Sur 0 -- -- 82
2020-01-16 06:00:00 12.6 26 Sudoeste 54 Sudoeste 0.6 -- -- 84
2020-01-16 05:00:00 12.4 24 Sudoeste 55 Oeste 0.6 -- -- 89
2020-01-16 04:00:00 12.7 20 Sudoeste 51 Sur 1.8 -- -- 87
2020-01-16 03:00:00 12.6 18 Sur 45 Sur 1.4 -- -- 90
2020-01-16 02:00:00 12.6 17 Sur 41 Sur 0 -- -- 84
2020-01-16 01:00:00 12.5 26 Sur 42 Sur 0 -- -- 75
2020-01-16 00:00:00 12.7 15 Sur 45 Sur 0 -- -- 75
2020-01-15 23:00:00 13.5 17 Sur 38 Sur 0 -- -- 74
2020-01-15 22:00:00 12.2 10 Sur 24 Sur 0 -- -- 82
2020-01-15 21:00:00 11.5 10 Sudeste 23 Sudeste 0 -- -- 81
2020-01-15 20:00:00 10.8 11 Sudeste 21 Sudeste 0 -- -- 80
2020-01-15 19:00:00 10.8 11 Sudeste 22 Sudeste 0 -- -- 77
2020-01-15 18:00:00 12.1 9 Sur 25 Sur 0 -- -- 71
2020-01-15 17:00:00 14.1 7 Sudoeste 26 Sur 0 -- -- 62
2020-01-15 16:00:00 13.6 12 Sur 27 Sudoeste 0 -- -- 64
2020-01-15 15:00:00 13.2 10 Sudoeste 23 Sudoeste 0 -- -- 64
2020-01-15 14:00:00 13.8 7 Sudoeste 19 Sudoeste 0 -- -- 65
2020-01-15 13:00:00 12.6 10 Sudoeste 17 Sur 0 -- -- 71
2020-01-15 12:00:00 11.9 3 Sudeste 5 Sur 0 -- -- 77
2020-01-15 11:00:00 9.4 3 Sudeste 5 Sudeste 0 -- -- 99
2020-01-15 10:00:00 7.4 2 Noroeste 6 Oeste 0 -- -- 98
2020-01-15 09:00:00 7.6 3 Noroeste 14 Noroeste 0 -- -- 98
2020-01-15 08:00:00 8.6 8 Noroeste 18 Noroeste 0.4 -- -- 98
2020-01-15 07:00:00 8.7 3 Oeste 41 Oeste 4.6 -- -- 96
2020-01-15 06:00:00 10.4 14 Sudoeste 56 Sudoeste 1.8 -- -- 91
2020-01-15 05:00:00 10.8 17 Sudoeste 65 Sudoeste 9.2 -- -- 95
2020-01-15 04:00:00 11.1 19 Sudoeste 49 Sur 3.2 -- -- 92
2020-01-15 03:00:00 10.7 19 Sudoeste 53 Sudoeste 1.4 -- -- 91
2020-01-15 02:00:00 11.5 26 Sudoeste 68 Sudoeste 0.4 -- -- 82
2020-01-15 01:00:00 11.1 19 Sudoeste 49 Oeste 1.2 -- -- 90
2020-01-15 00:00:00 11.6 19 Sudoeste 59 Sudoeste 0.2 -- -- 84
2020-01-14 23:00:00 11.5 17 Sudoeste 52 Sur 0 -- -- 83
2020-01-14 22:00:00 11.7 19 Sur 55 Sur 0 -- -- 79
2020-01-14 21:00:00 11.4 25 Sur 48 Sur 0 -- -- 78
2020-01-14 20:00:00 11.4 20 Sudoeste 55 Sudoeste 0 -- -- 75
2020-01-14 19:00:00 11.4 24 Sur 48 Sudoeste 0 -- -- 74
2020-01-14 18:00:00 11.4 22 Sudoeste 45 Sudoeste 0 -- -- 75
2020-01-14 17:00:00 11.8 21 Sudoeste 54 Sudoeste 0 -- -- 75
2020-01-14 16:00:00 12.8 18 Sudoeste 54 Sudoeste 0 -- -- 73
2020-01-14 15:00:00 13.4 23 Sudoeste 50 Sur 0 -- -- 70
2020-01-14 14:00:00 12.9 19 Sudoeste 53 Sudoeste 0 -- -- 71
2020-01-14 13:00:00 12.7 24 Sudoeste 58 Sur 0 -- -- 69
2020-01-14 12:00:00 12.5 19 Sur 41 Sur 0 -- -- 71
2020-01-14 11:00:00 11.7 19 Sur 45 Sur 0 -- -- 75
2020-01-14 10:00:00 10.5 18 Sur 37 Sur 0 -- -- 80
2020-01-14 09:00:00 10.1 17 Sur 34 Sur 0 -- -- 81
2020-01-14 08:00:00 10 14 Sur 38 Sudoeste 0 -- -- 84
2020-01-14 07:00:00 9.9 13 Sur 43 Sur 0 -- -- 83
2020-01-14 06:00:00 9.9 20 Sur 42 Sudoeste 0 -- -- 83
2020-01-14 05:00:00 10 19 Sur 57 Sur 0 -- -- 83
2020-01-14 04:00:00 9.5 14 Sudoeste 47 Sur 0 -- -- 87
2020-01-14 03:00:00 9 16 Sudoeste 48 Sudoeste 0 -- -- 91
2020-01-14 02:00:00 9.3 20 Sur 55 Sur 0 -- -- 89
2020-01-14 01:00:00 9.1 16 Sudoeste 37 Sur 0.2 -- -- 91
2020-01-14 00:00:00 8.9 13 Sur 35 Sur 0 -- -- 91
2020-01-13 23:00:00 8.9 17 Sudoeste 31 Sudoeste 0 -- -- 90
2020-01-13 22:00:00 8.7 17 Sur 40 Sur 0 -- -- 90
2020-01-13 21:00:00 8.3 13 Sur 36 Sur 0 -- -- 90
2020-01-13 20:00:00 7.8 15 Sur 51 Sur 0 -- -- 92
2020-01-13 19:00:00 8 23 Sur 41 Sudoeste 0 -- -- 87
2020-01-13 18:00:00 7.7 20 Sur 43 Sudoeste 0 -- -- 87
2020-01-13 17:00:00 8.6 18 Sur 39 Sur 0 -- -- 77
2020-01-13 16:00:00 10.3 15 Sur 41 Sur 0 -- -- 69
2020-01-13 15:00:00 9.9 15 Sudoeste 46 Oeste 0 -- -- 70
2020-01-13 14:00:00 11.9 6 Sudoeste 33 Sudoeste 0 -- -- 60
2020-01-13 13:00:00 11.1 6 Sur 30 Sur 0 -- -- 61
2020-01-13 12:00:00 10 8 Sur 39 Sudeste 0 -- -- 61
2020-01-13 11:00:00 8.3 20 Sudeste 39 Sur 0 -- -- 59
2020-01-13 10:00:00 7.2 12 Sur 26 Sudeste 0 -- -- 69
2020-01-13 09:00:00 7.9 9 Sudoeste 29 Sur 0 -- -- 64
2020-01-13 08:00:00 7.5 6 Sur 12 Sudeste 0 -- -- 68
2020-01-13 07:00:00 7.5 3 Oeste 12 Sudeste 0 -- -- 76
2020-01-13 06:00:00 7.5 5 Sur 11 Sudeste 0 -- -- 75
2020-01-13 05:00:00 6.9 3 Este 15 Este 0 -- -- 79
2020-01-13 04:00:00 7 9 Este 17 Sudeste 0 -- -- 78
2020-01-13 03:00:00 7.3 10 Sudeste 18 Sudeste 0 -- -- 79
2020-01-13 02:00:00 7 4 Sudeste 16 Sudeste 0 -- -- 82
2020-01-13 01:00:00 6.8 9 Este 13 Este 0 -- -- 84
2020-01-13 00:00:00 6.9 8 Este 13 Este 0 -- -- 87
2020-01-12 23:00:00 6.8 7 Este 9 Este 0 -- -- 90
2020-01-12 22:00:00 7 0 Calma 13 Sudeste 0 -- -- 93
2020-01-12 21:00:00 6.9 6 Sudeste 10 Sudeste 0 -- -- 96
2020-01-12 20:00:00 6.9 2 Sudeste 4 Nordeste 0 -- -- 93
2020-01-12 19:00:00 8 2 Nordeste 5 Norte 0 -- -- 88
2020-01-12 18:00:00 9.3 2 Noroeste 13 Noroeste 0 -- -- 81
2020-01-12 17:00:00 11.8 5 Noroeste 10 Norte 0 -- -- 67
2020-01-12 16:00:00 12 6 Norte 13 Noroeste 0 -- -- 64
2020-01-12 15:00:00 12.3 6 Noroeste 13 Noroeste 0 -- -- 62
2020-01-12 14:00:00 12.1 3 Noroeste 9 Noroeste 0 -- -- 55
2020-01-12 13:00:00 10.6 4 Noroeste 10 Noroeste 0 -- -- 59
2020-01-12 12:00:00 10.7 4 Noroeste 7 Noroeste 0 -- -- 56
2020-01-12 11:00:00 11.2 0 Calma 20 Este 0 -- -- 56
2020-01-12 10:00:00 5.8 13 Sudeste 21 Sudeste 0 -- -- 65
2020-01-12 09:00:00 4 10 Este 15 Sudeste 0 -- -- 72
2020-01-12 08:00:00 2.7 8 Este 12 Este 0 -- -- 76
2020-01-12 07:00:00 2.2 9 Este 14 Este 0 -- -- 79
2020-01-12 06:00:00 3.1 10 Este 18 Sudeste 0 -- -- 74
2020-01-12 05:00:00 2.9 13 Este 18 Sudeste 0 -- -- 79
2020-01-12 04:00:00 2.1 6 Este 11 Este 0 -- -- 83
2020-01-12 03:00:00 2.9 9 Este 13 Este 0 -- -- 81
2020-01-12 02:00:00 3.1 6 Este 19 Este 0 -- -- 79
2020-01-12 01:00:00 3.4 8 Este 17 Este 0 -- -- 84
2020-01-12 00:00:00 3.2 4 Este 9 Este 0 -- -- 87
2020-01-11 23:00:00 3.2 2 Este 8 Nordeste 0 -- -- 88
2020-01-11 22:00:00 4.3 6 Este 10 Este 0 -- -- 88
2020-01-11 21:00:00 5.5 0 Calma 7 Sudeste 0 -- -- 87
2020-01-11 20:00:00 6.3 4 Sudeste 6 Sudeste 0 -- -- 82
2020-01-11 19:00:00 7.1 0 Calma 8 Nordeste 0 -- -- 83
2020-01-11 18:00:00 10.2 3 Norte 9 Norte 0 -- -- 72
2020-01-11 17:00:00 12.5 4 Noroeste 9 Noroeste 0 -- -- 62
2020-01-11 16:00:00 12.2 3 Noroeste 12 Noroeste 0 -- -- 62
2020-01-11 15:00:00 12.3 5 Norte 12 Noroeste 0 -- -- 62
2020-01-11 14:00:00 12.9 3 Sudoeste 12 Sudeste 0 -- -- 58
2020-01-11 13:00:00 10.3 7 Sudeste 18 Sudeste 0 -- -- 66
2020-01-11 12:00:00 8.8 11 Sudeste 23 Sudeste 0 -- -- 65
2020-01-11 11:00:00 5.8 12 Sudeste 21 Sudeste 0 -- -- 73
2020-01-11 10:00:00 6.1 12 Sudeste 22 Sudeste 0 -- -- 73
2020-01-11 09:00:00 3.9 13 Sudeste 21 Sudeste 0 -- -- 83
2020-01-11 08:00:00 4.1 13 Sudeste 19 Sudeste 0 -- -- 83
2020-01-11 07:00:00 4.5 13 Sudeste 21 Sudeste 0 -- -- 84
2020-01-11 06:00:00 4.8 14 Sudeste 23 Sudeste 0 -- -- 83
2020-01-11 05:00:00 4.2 13 Sudeste 20 Sudeste 0 -- -- 86
2020-01-11 04:00:00 3.2 10 Sudeste 17 Sudeste 0 -- -- 89
2020-01-11 03:00:00 3.8 11 Sudeste 20 Sudeste 0 -- -- 88
2020-01-11 02:00:00 3.1 11 Sudeste 23 Sudeste 0 -- -- 90
2020-01-11 01:00:00 3.5 9 Sudeste 16 Sudeste 0 -- -- 90
2020-01-11 00:00:00 3.8 10 Sudeste 14 Sudeste 0 -- -- 92
2020-01-10 23:00:00 3 3 Este 8 Nordeste 0 -- -- 91
2020-01-10 22:00:00 5.4 5 Este 9 Este 0 -- -- 84
2020-01-10 21:00:00 5.8 6 Sudeste 9 Sudeste 0 -- -- 82
2020-01-10 20:00:00 5.5 2 Este 5 Este 0 -- -- 82
2020-01-10 19:00:00 6.7 3 Este 5 Este 0 -- -- 77
2020-01-10 18:00:00 9.2 2 Este 9 Este 0 -- -- 67
2020-01-10 17:00:00 10.6 6 Sudeste 17 Este 0 -- -- 62
2020-01-10 16:00:00 11.6 6 Este 13 Nordeste 0 -- -- 61
2020-01-10 15:00:00 10.4 5 Nordeste 17 Este 0 -- -- 67
2020-01-10 14:00:00 10.9 5 Norte 15 Nordeste 0 -- -- 72
2020-01-10 13:00:00 10 7 Este 13 Norte 0 -- -- 74
2020-01-10 12:00:00 9.1 6 Noroeste 12 Sudeste 0 -- -- 83
2020-01-10 11:00:00 8.7 5 Sudeste 11 Sudeste 0 -- -- 82
2020-01-10 10:00:00 5.1 0 Calma 4 Sudeste 0 -- -- 97
2020-01-10 09:00:00 4.1 0 Calma 3 Sudeste 0 -- -- 99
2020-01-10 08:00:00 4.4 0 Calma 3 Nordeste 0.4 -- -- 97
2020-01-10 07:00:00 4.5 0 Calma 4 Oeste 0 -- -- 97
2020-01-10 06:00:00 4.1 0 Calma 7 Norte 0 -- -- 96
2020-01-10 05:00:00 4.3 0 Calma 4 Nordeste 0 -- -- 96
2020-01-10 04:00:00 4.8 0 Calma 4 Nordeste 0 -- -- 94
2020-01-10 03:00:00 4.7 0 Calma 4 Noroeste 0 -- -- 93
2020-01-10 02:00:00 5.4 2 Noroeste 5 Noroeste 0 -- -- 90
2020-01-10 01:00:00 4.7 0 Calma 5 Noroeste 0 -- -- 94
2020-01-10 00:00:00 5.8 5 Noroeste 22 Noroeste 0 -- -- 92
2020-01-09 23:00:00 6.1 3 Noroeste 7 Noroeste 0 -- -- 88
2020-01-09 22:00:00 5.8 2 Noroeste 9 Oeste 0 -- -- 88
2020-01-09 21:00:00 6.3 3 Oeste 10 Oeste 0 -- -- 85
2020-01-09 20:00:00 6.3 5 Noroeste 12 Sudoeste 0 -- -- 86
2020-01-09 19:00:00 6.1 2 Noroeste 10 Noroeste 0 -- -- 86
2020-01-09 18:00:00 7.9 5 Noroeste 13 Noroeste 0 -- -- 83
2020-01-09 17:00:00 9.9 5 Noroeste 29 Noroeste 0 -- -- 79
2020-01-09 16:00:00 9.6 10 Noroeste 31 Noroeste 0 -- -- 81
2020-01-09 15:00:00 10.1 14 Noroeste 54 Noroeste 0.8 -- -- 87
2020-01-09 14:00:00 11 15 Noroeste 52 Oeste 0 -- -- 89
2020-01-09 13:00:00 11.3 18 Noroeste 44 Sudoeste 0.6 -- -- 93
2020-01-09 12:00:00 13.3 17 Sudoeste 36 Sudoeste 0 -- -- 89
2020-01-09 11:00:00 12.1 12 Sudoeste 36 Sudoeste 0 -- -- 93
2020-01-09 10:00:00 11.5 10 Sudoeste 23 Oeste 0 -- -- 94
2020-01-09 09:00:00 11.4 14 Sudoeste 31 Sudoeste 0 -- -- 96
2020-01-09 08:00:00 11.3 9 Sudoeste 24 Sur 0 -- -- 96
2020-01-09 07:00:00 11.3 9 Sudoeste 24 Sudoeste 0 -- -- 96
2020-01-09 06:00:00 11.5 7 Sudoeste 23 Oeste 0 -- -- 96
2020-01-09 05:00:00 11.5 4 Sudoeste 20 Oeste 0.2 -- -- 96
2020-01-09 04:00:00 11.9 9 Sudoeste 31 Oeste 0 -- -- 94
2020-01-09 03:00:00 11.9 5 Sudoeste 15 Oeste 0 -- -- 93
2020-01-09 02:00:00 11.7 3 Norte 12 Noroeste 0 -- -- 93
2020-01-09 01:00:00 11.5 0 Calma 14 Sudoeste 0 -- -- 93
2020-01-09 00:00:00 11.6 4 Sudoeste 13 Oeste 0 -- -- 94
2020-01-08 23:00:00 11.4 3 Noroeste 13 Oeste 0 -- -- 96
2020-01-08 22:00:00 11.6 2 Sur 8 Este 0 -- -- 98
2020-01-08 21:00:00 11.4 0 Calma 5 Norte 0 -- -- 99
2020-01-08 20:00:00 11.5 2 Sudoeste 11 Norte 0 -- -- 98
2020-01-08 19:00:00 11.9 0 Calma 5 Noroeste 0 -- -- 98
2020-01-08 18:00:00 12.2 2 Norte 5 Norte 0 -- -- 97
2020-01-08 17:00:00 12.7 2 Norte 4 Nordeste 0 -- -- 95
2020-01-08 16:00:00 12.5 0 Calma 9 Noroeste 0 -- -- 95
2020-01-08 15:00:00 13.5 2 Norte 10 Norte 0 -- -- 88
2020-01-08 14:00:00 15.3 2 Sudoeste 8 Sur 0 -- -- 81
2020-01-08 13:00:00 14.1 2 Sudeste 6 Norte 0 -- -- 86
2020-01-08 12:00:00 13.5 2 Sudeste 8 Este 0 -- -- 87
2020-01-08 11:00:00 11.5 5 Este 14 Este 0 -- -- 91
2020-01-08 10:00:00 9.6 8 Este 14 Este 0 -- -- 95
2020-01-08 09:00:00 9.2 8 Este 14 Este 0 -- -- 95
2020-01-08 08:00:00 9.5 9 Sudeste 18 Sudeste 0 -- -- 90
2020-01-08 07:00:00 8.7 9 Sudeste 16 Sudeste 0 -- -- 93
2020-01-08 06:00:00 8.1 0 Calma 5 Este 0 -- -- 87
2020-01-08 05:00:00 8.5 3 Este 16 Sudeste 0 -- -- 82
2020-01-08 04:00:00 8.7 8 Este 14 Este 0 -- -- 83
2020-01-08 03:00:00 8.2 6 Este 9 Este 0 -- -- 86
2020-01-08 02:00:00 7.6 0 Calma 10 Este 0 -- -- 88
2020-01-08 01:00:00 6.8 5 Este 21 Sudeste 0 -- -- 88
2020-01-08 00:00:00 7 13 Este 19 Sudeste 0 -- -- 90
2020-01-07 23:00:00 8 8 Este 16 Sudeste 0 -- -- 90
2020-01-07 22:00:00 7.4 9 Este 15 Sudeste 0 -- -- 96
2020-01-07 21:00:00 6.5 3 Sudeste 4 Este 0 -- -- 97
2020-01-07 20:00:00 6.7 0 Calma 3 Nordeste 0 -- -- 95
2020-01-07 19:00:00 7.3 0 Calma 4 Noroeste 0 -- -- 93
2020-01-07 18:00:00 9.4 2 Norte 8 Noroeste 0 -- -- 85
2020-01-07 17:00:00 10.9 5 Noroeste 10 Noroeste 0 -- -- 78
2020-01-07 16:00:00 11.1 6 Noroeste 13 Noroeste 0 -- -- 76
2020-01-07 15:00:00 11.3 8 Noroeste 13 Noroeste 0 -- -- 73
2020-01-07 14:00:00 12.8 5 Noroeste 10 Noroeste 0 -- -- 66
2020-01-07 13:00:00 12.2 2 Oeste 8 Noroeste 0 -- -- 66
2020-01-07 12:00:00 11.3 2 Oeste 5 Noroeste 0 -- -- 61
2020-01-07 11:00:00 11.6 0 Calma 11 Sudeste 0 -- -- 61
2020-01-07 10:00:00 6.8 6 Sudeste 16 Sudeste 0 -- -- 72
2020-01-07 09:00:00 4.2 9 Sudeste 16 Sudeste 0 -- -- 82
2020-01-07 08:00:00 3.6 6 Sudeste 19 Este 0 -- -- 87
2020-01-07 07:00:00 3.2 10 Este 13 Este 0 -- -- 93
2020-01-07 06:00:00 3.5 6 Este 12 Este 0 -- -- 94
2020-01-07 05:00:00 3 2 Sudeste 12 Este 0 -- -- 94
2020-01-07 04:00:00 3.8 7 Este 14 Sudeste 0 -- -- 95
2020-01-07 03:00:00 3.2 0 Calma 12 Sudeste 0 -- -- 94
2020-01-07 02:00:00 4.1 8 Este 13 Sudeste 0 -- -- 90
2020-01-07 01:00:00 4.3 7 Este 11 Este 0 -- -- 94
2020-01-07 00:00:00 4 6 Este 17 Sudeste 0 -- -- 95
2020-01-06 23:00:00 5.2 12 Sudeste 21 Sudeste 0 -- -- 91
2020-01-06 22:00:00 5.6 9 Sudeste 15 Sur 0 -- -- 92
2020-01-06 21:00:00 5.5 3 Sudeste 5 Sudeste 0 -- -- 90
2020-01-06 20:00:00 7.2 2 Noroeste 4 Noroeste 0 -- -- 85
2020-01-06 19:00:00 7.3 0 Calma 5 Noroeste 0 -- -- 85
2020-01-06 18:00:00 8.2 3 Noroeste 14 Noroeste 0 -- -- 84
2020-01-06 17:00:00 9.6 7 Noroeste 15 Noroeste 0 -- -- 81
2020-01-06 16:00:00 11.3 10 Noroeste 17 Oeste 0 -- -- 71
2020-01-06 15:00:00 11.7 3 Sur 14 Sudeste 0 -- -- 70
2020-01-06 14:00:00 10.1 8 Sur 17 Sur 0 -- -- 75
2020-01-06 13:00:00 8.3 4 Sudoeste 14 Sudoeste 0 -- -- 81
2020-01-06 12:00:00 7.4 7 Sudoeste 14 Sur 0 -- -- 84
2020-01-06 11:00:00 6 0 Calma 8 Este 0 -- -- 80
2020-01-06 10:00:00 4.7 4 Este 9 Este 0 -- -- 82